EDT,Max TemperatureF,Mean TemperatureF,Min TemperatureF,Max Dew PointF,MeanDew PointF,Min DewpointF,Max Humidity, Mean Humidity, Min Humidity, Max Sea Level PressureIn, Mean Sea Level PressureIn, Min Sea Level PressureIn, Max VisibilityMiles, Mean VisibilityMiles, Min VisibilityMiles, Max Wind SpeedMPH, Mean Wind SpeedMPH, Max Gust SpeedMPH,PrecipitationIn, CloudCover, Events, WindDirDegrees
2013-10-1,80,68,55,58,55,52,86,66,45,30.12,30.06,30.00,10,10,8,15,3,18,0.00,2,,247
2013-10-2,84,71,57,60,57,55,93,67,40,30.12,30.08,30.04,10,9,4,15,7,21,0.00,0,,230
2013-10-3,81,70,59,63,60,57,90,71,51,30.17,30.12,30.07,10,9,6,8,2,12,0.00,0,,153
2013-10-4,85,74,62,64,62,61,93,71,48,30.14,30.08,30.04,10,8,4,9,3,12,0.00,2,,204
2013-10-5,86,76,66,64,63,61,87,68,48,30.13,30.07,30.02,10,9,7,12,4,17,0.00,2,,184
2013-10-6,87,75,63,65,62,58,93,65,37,30.04,29.97,29.90,10,9,5,22,7,28,0.00,0,,164
2013-10-7,73,66,58,67,60,42,90,75,60,30.11,29.85,29.75,10,8,0,22,12,31,0.86,6,Fog-Rain,205
2013-10-8,67,57,46,46,43,39,86,62,37,30.34,30.27,30.13,10,10,10,14,4,18,0.00,0,,43
2013-10-9,61,54,46,46,43,35,86,63,39,30.40,30.35,30.30,10,10,10,12,5,13,0.00,0,,21
2013-10-10,54,53,52,54,50,43,100,83,66,30.28,30.14,30.05,10,5,1,18,11,23,0.89,8,Rain,359
2013-10-11,57,55,53,59,54,52,100,97,93,30.08,30.03,30.00,10,4,1,15,12,21,1.24,8,Rain,353
2013-10-12,70,65,60,59,55,51,97,75,53,30.22,30.14,30.04,10,10,2,16,7,21,0.18,8,Rain,16
2013-10-13,60,59,57,57,55,54,93,87,80,30.36,30.30,30.20,10,6,2,12,5,15,0.04,8,Rain,10
2013-10-14,66,59,51,56,52,49,96,80,63,30.38,30.33,30.27,10,10,7,8,4,13,0.00,7,,12
2013-10-15,70,61,51,56,52,43,93,72,51,30.27,30.21,30.11,10,7,0,7,1,18,0.00,3,Fog,125
2013-10-16,68,60,53,59,56,46,84,76,67,30.11,30.01,29.92,10,10,8,9,5,,0.00,5,,178
2013-10-17,71,66,60,64,59,44,97,83,68,29.93,29.84,29.71,10,9,2,10,2,14,0.05,7,Rain,199
2013-10-18,64,58,51,45,40,37,71,54,37,30.05,29.99,29.90,10,10,9,18,11,26,0.00,3,,279
2013-10-19,61,51,41,55,46,39,93,82,71,30.03,29.91,29.77,10,9,1,14,4,20,0.00,5,Rain,227
2013-10-20,61,52,43,36,35,31,65,49,32,30.12,30.05,29.95,10,10,10,15,7,20,0.00,1,,237
2013-10-21,67,54,40,42,38,35,85,60,34,30.17,30.08,29.96,10,10,8,17,6,23,0.00,0,,166
2013-10-22,59,55,50,46,39,27,83,62,40,29.94,29.90,29.86,10,10,10,25,7,33,0.00,3,,219
2013-10-23,51,44,37,37,33,29,79,64,48,29.94,29.82,29.73,10,10,10,15,4,18,0.00,5,,311
2013-10-24,48,43,38,33,30,23,79,59,38,30.17,30.05,29.95,10,10,10,22,9,28,T,4,Rain,251
2013-10-25,51,43,35,33,29,27,76,59,41,30.35,30.28,30.18,10,10,10,21,9,32,0.00,2,,254
2013-10-26,54,42,30,28,26,23,85,57,29,30.33,30.14,29.97,10,10,10,20,8,28,0.00,2,,190
2013-10-27,57,49,41,34,30,27,65,49,32,30.18,30.08,29.99,10,10,3,18,7,24,0.00,1,,286
2013-10-28,59,46,33,37,32,29,82,61,39,30.32,30.26,30.18,10,10,10,6,1,8,0.00,0,,97
2013-10-29,60,49,37,39,36,33,85,65,44,30.43,30.37,30.32,10,10,9,9,3,12,0.00,1,,19
2013-10-30,66,57,47,52,46,39,86,69,52,30.33,30.24,30.17,10,9,6,7,2,13,T,5,Rain,156
2013-10-31,66,60,53,59,55,51,93,81,68,30.19,30.01,29.73,10,6,2,15,4,23,T,7,Rain,176